Latest Weather Observations for Edinburgh

IDS60901

Issued at 12:51 pm CST Saturday 1 August 2015 (issued every 10 minutes, with the page automatically refreshed every 10 minutes)

About weather observations | Map of Adelaide area stations | Latest observations for Adelaide area | Other Formats
Station Details ID: 023083 Name: EDINBURGH RAAF Lat: -34.71 Lon: 138.62 Height: 16.54 m
Data from the previous 72 hours. | See also: Recent months at Edinburgh
Date/Time
CST
Tmp

°C
App
Tmp
°C
Dew
Point
°C
Rel
Hum
%
Delta-T

°C
Wind Press
QNH
hPa
Press
MSL
hPa
Rain
since
9 am
mm
Dir
 
Spd
km/h
Gust
km/h
Spd
kts
Gust
kts
01/12:30pm 11.3 9.9 9.7 90 0.8 SSE 7 11 4 6 1016.6 1016.6 3.4
01/12:09pm 11.2 8.3 9.8 91 0.7 SSW 15 19 8 10 1017.2 1017.2 3.4
01/12:06pm 11.3 8.1 10.0 92 0.7 SSW 17 22 9 12 1017.3 1017.3 3.4
01/12:00pm 11.1 7.5 9.7 91 0.7 SW 19 24 10 13 1018.0 1018.0 3.4
01/11:55am 11.2 7.0 9.8 91 0.7 WSW 22 32 12 17 1018.7 1018.7 3.2
01/11:42am 11.8 9.1 10.4 91 0.7 WNW 15 26 8 14 1019.2 1019.2 2.8
01/11:30am 11.7 10.1 10.3 91 0.7 NNE 9 11 5 6 1017.1 1017.1 2.6
01/11:00am 11.5 9.5 10.2 92 0.7 ENE 11 15 6 8 1016.5 1016.5 2.6
01/10:30am 11.0 10.9 9.6 91 0.7 CALM 0 6 0 3 1017.7 1017.7 1.8
01/10:00am 11.2 9.1 9.8 91 0.7 SSW 11 15 6 8 1017.5 1017.5 1.4
01/09:30am 11.0 7.8 9.9 93 0.6 SSW 17 24 9 13 1017.0 1017.0 1.2
01/09:00am 11.1 8.7 10.0 93 0.6 SSW 13 17 7 9 1016.2 1016.2 14.6
01/08:30am 11.1 8.4 10.2 94 0.5 SSW 15 19 8 10 1016.0 1016.0 14.2
01/08:00am 11.0 7.8 10.1 94 0.5 SSW 17 22 9 12 1015.8 1015.8 13.4
01/07:30am 10.9 8.5 10.0 94 0.5 SW 13 15 7 8 1015.3 1015.3 12.8
01/07:00am 10.8 8.7 9.7 93 0.6 WSW 11 15 6 8 1015.5 1015.5 11.2
01/06:45am 10.8 9.1 9.7 93 0.6 SW 9 13 5 7 1015.1 1015.1 11.2
01/06:31am 10.8 8.7 9.7 93 0.6 SSW 11 13 6 7 1014.7 1014.7 10.4
01/06:30am 10.8 8.7 9.7 93 0.6 SSW 11 13 6 7 1014.7 1014.7 10.2
01/06:00am 10.9 7.1 9.7 92 0.6 SSW 20 28 11 15 1014.4 1014.4 8.0
01/05:54am 11.0 6.8 9.8 92 0.6 SSW 22 30 12 16 1014.3 1014.3 8.0
01/05:40am 11.2 6.7 9.9 92 0.7 SSW 24 33 13 18 1014.2 1014.2 7.8
01/05:35am 11.2 7.0 9.9 92 0.7 SSW 22 30 12 16 1014.1 1014.1 7.8
01/05:30am 11.2 6.3 9.8 91 0.7 SSW 26 39 14 21 1014.0 1014.0 7.6
01/05:22am 11.3 4.7 9.9 91 0.7 SSW 35 44 19 24 1014.1 1014.1 7.6
01/05:15am 11.7 5.6 10.4 92 0.7 SW 33 44 18 24 1013.9 1013.9 7.6
01/05:00am 13.4 10.3 12.3 93 0.6 NW 20 28 11 15 1013.4 1013.4 6.6
01/04:44am 13.4 10.5 12.3 93 0.6 NW 19 26 10 14 1013.1 1013.1 5.8
01/04:30am 13.4 10.5 12.3 93 0.6 NW 19 24 10 13 1013.1 1013.1 4.8
01/04:00am 13.3 10.3 12.0 92 0.7 NNW 19 24 10 13 1012.7 1012.7 3.8
01/03:30am 13.3 9.7 11.9 91 0.7 NNW 22 28 12 15 1012.9 1012.9 3.6
01/03:00am 13.5 9.9 11.9 90 0.9 NW 22 30 12 16 1013.2 1013.2 2.6
01/02:30am 13.6 10.9 11.8 89 1.0 NNW 17 20 9 11 1013.2 1013.2 0.6
01/02:00am 13.6 10.9 11.8 89 1.0 NNW 17 20 9 11 1013.3 1013.3 0.2
01/01:30am 13.6 10.9 11.8 89 1.0 N 17 22 9 12 1013.2 1013.2 0.2
01/01:00am 13.3 10.9 11.5 89 1.0 NNW 15 19 8 10 1013.2 1013.2 0.2
01/12:30am 13.5 10.3 11.4 87 1.1 NNW 19 26 10 14 1013.6 1013.6 0.0
01/12:00am 13.3 9.8 11.0 86 1.2 N 20 30 11 16 1013.7 1013.7 0.0
 
Date/Time
CST
Tmp

°C
App
Tmp
°C
Dew
Point
°C
Rel
Hum
%
Delta-T

°C
Wind Press
QNH
hPa
Press
MSL
hPa
Rain
since
9 am
mm
Dir
 
Spd
km/h
Gust
km/h
Spd
kts
Gust
kts
31/11:30pm 13.3 9.8 11.0 86 1.2 NNW 20 28 11 15 1014.0 1014.0 0.0
31/11:00pm 13.2 9.6 10.6 84 1.4 N 20 28 11 15 1014.2 1014.2 0.0
31/10:30pm 13.2 9.7 10.2 82 1.6 N 19 24 10 13 1014.3 1014.3 0.0
31/10:00pm 13.2 9.2 9.1 76 2.1 N 20 26 11 14 1014.4 1014.4 0.0
31/09:30pm 12.1 9.2 9.5 84 1.3 NNE 15 17 8 9 1014.8 1014.8 0.0
31/09:00pm 11.8 9.9 9.2 84 1.3 NE 9 11 5 6 1014.8 1014.8 0.0
31/08:30pm 12.0 10.6 9.4 84 1.3 ENE 7 9 4 5 1014.7 1014.7 0.0
31/08:00pm 12.0 11.7 8.8 81 1.6 CALM 0 0 0 0 1014.6 1014.6 0.0
31/07:30pm 12.2 11.6 8.9 80 1.6 E 2 6 1 3 1014.8 1014.8 0.0
31/07:00pm 12.5 11.1 9.0 79 1.8 ENE 6 7 3 4 1014.8 1014.8 0.0
31/06:30pm 13.0 11.7 9.1 77 2.0 ENE 6 7 3 4 1014.7 1014.7 0.0
31/06:00pm 13.3 13.1 9.0 75 2.2 CALM 0 0 0 0 1014.8 1014.8 0.0
31/05:30pm 13.8 13.5 8.8 72 2.5 CALM 0 0 0 0 1014.9 1014.9 0.0
31/05:00pm 13.9 12.4 9.1 73 2.4 W 7 9 4 5 1015.2 1015.2 0.0
31/04:30pm 14.7 12.1 9.3 70 2.8 W 13 19 7 10 1015.3 1015.3 0.0
31/04:00pm 16.0 12.4 9.7 66 3.3 WNW 19 26 10 14 1015.6 1015.6 0.0
31/03:30pm 16.0 12.6 9.0 63 3.6 WNW 17 22 9 12 1015.9 1015.9 0.0
31/03:00pm 16.0 12.3 9.4 65 3.4 NNW 19 26 10 14 1015.9 1015.9 0.0
31/02:30pm 16.2 11.5 9.4 64 3.5 NNW 24 32 13 17 1016.4 1016.4 0.0
31/02:00pm 15.5 11.4 8.0 61 3.8 NNW 19 24 10 13 1016.9 1016.9 0.0
31/01:30pm 15.4 10.0 8.2 62 3.6 NNW 26 32 14 17 1017.3 1017.3 0.0
31/01:00pm 15.0 11.4 8.3 64 3.4 N 17 24 9 13 1017.9 1017.9 0.0
31/12:30pm 15.5 11.4 7.8 60 3.8 NNW 19 30 10 16 1018.8 1018.8 0.0
31/12:00pm 14.1 10.1 6.5 60 3.7 N 17 26 9 14 1019.6 1019.6 0.0
31/11:30am 13.2 9.6 8.3 72 2.4 NNE 17 22 9 12 1020.3 1020.3 0.0
31/11:00am 12.5 9.1 9.0 79 1.8 NNE 17 20 9 11 1020.7 1020.7 0.0
31/10:30am 11.5 8.2 8.2 80 1.6 NNE 15 20 8 11 1021.2 1021.2 0.0
31/10:00am 11.0 7.4 8.2 83 1.4 NNE 17 20 9 11 1021.6 1021.6 0.0
31/09:30am 10.0 6.8 8.3 89 0.8 NE 15 19 8 10 1021.7 1021.7 0.0
31/09:00am 8.0 6.1 6.9 93 0.5 NNE 6 7 3 4 1022.0 1022.0 1.2
31/08:30am 7.0 5.7 6.1 94 0.4 NNE 2 7 1 4 1022.1 1022.1 1.2
31/08:00am 6.1 3.3 5.2 94 0.4 N 9 13 5 7 1022.2 1022.2 1.2
31/07:30am 5.6 2.4 4.9 95 0.3 NE 11 15 6 8 1022.1 1022.1 1.2
31/07:00am 4.6 1.9 3.9 95 0.3 ENE 7 9 4 5 1022.0 1022.0 1.2
31/06:30am 4.0 0.8 3.3 95 0.3 NNE 9 11 5 6 1021.9 1021.9 1.2
31/06:17am 3.6 0.3 2.7 94 0.4 NNE 9 9 5 5 1021.9 1021.9 1.2
31/06:00am 3.3 -0.4 2.3 93 0.4 NNE 11 13 6 7 1021.8 1021.8 1.2
31/05:55am 3.4 -0.3 2.5 94 0.4 NNE 11 13 6 7 1021.7 1021.7 1.2
31/05:43am 4.8 1.8 4.1 95 0.3 NE 9 9 5 5 1021.7 1021.7 1.2
31/05:30am 4.8 1.8 4.1 95 0.3 NE 9 11 5 6 1021.5 1021.5 1.2
31/05:21am 3.9 0.7 3.0 94 0.4 NE 9 11 5 6 1021.5 1021.5 1.2
31/05:20am 3.9 0.7 3.0 94 0.4 NE 9 11 5 6 1021.5 1021.5 1.2
31/05:03am 4.1 0.9 3.2 94 0.4 NNE 9 11 5 6 1021.4 1021.4 1.2
31/05:02am 4.0 0.8 3.1 94 0.4 NE 9 11 5 6 1021.4 1021.4 1.2
31/05:00am 3.9 0.7 3.0 94 0.4 NE 9 11 5 6 1021.4 1021.4 1.2
31/04:59am 3.9 0.7 3.0 94 0.4 NE 9 11 5 6 1021.4 1021.4 1.2
31/04:36am 3.8 1.0 2.9 94 0.4 NE 7 11 4 6 1021.5 1021.5 1.2
31/04:30am 4.3 1.2 3.4 94 0.4 NE 9 11 5 6 1021.4 1021.4 1.2
31/04:11am 4.8 1.8 3.9 94 0.4 ENE 9 13 5 7 1021.6 1021.6 1.2
31/04:00am 5.5 2.2 4.8 95 0.3 ENE 11 13 6 7 1021.7 1021.7 1.2
31/03:49am 5.4 1.7 4.5 94 0.4 NE 13 15 7 8 1021.7 1021.7 1.2
31/03:42am 4.7 1.2 3.7 93 0.4 NE 11 13 6 7 1021.8 1021.8 1.2
31/03:30am 5.6 2.7 4.7 94 0.4 NE 9 13 5 7 1021.8 1021.8 1.2
31/03:27am 5.7 2.8 4.8 94 0.4 NE 9 11 5 6 1021.8 1021.8 1.2
31/03:10am 6.8 4.2 5.9 94 0.4 ENE 9 13 5 7 1021.9 1021.9 1.2
31/03:00am 6.8 3.8 5.9 94 0.4 NE 11 13 6 7 1021.9 1021.9 1.2
31/02:30am 6.9 4.3 6.0 94 0.4 ENE 9 11 5 6 1022.3 1022.3 1.2
31/02:00am 6.1 3.7 5.2 94 0.4 NE 7 11 4 6 1022.3 1022.3 1.2
31/01:30am 6.7 4.4 5.8 94 0.4 ENE 7 11 4 6 1022.4 1022.4 1.2
31/01:09am 6.4 4.2 5.5 94 0.4 E 6 7 3 4 1022.6 1022.6 1.2
31/01:05am 6.7 4.6 5.8 94 0.4 E 6 7 3 4 1022.5 1022.5 1.2
31/01:00am 6.3 4.1 5.4 94 0.4 E 6 7 3 4 1022.5 1022.5 1.2
31/12:42am 5.4 4.2 4.4 93 0.4 CALM 0 0 0 0 1022.8 1022.8 1.2
31/12:30am 6.2 4.7 5.0 92 0.5 E 2 6 1 3 1022.7 1022.7 1.0
31/12:00am 7.7 6.9 6.6 93 0.5 CALM 0 0 0 0 1022.5 1022.5 1.0
 
Date/Time
CST
Tmp

°C
App
Tmp
°C
Dew
Point
°C
Rel
Hum
%
Delta-T

°C
Wind Press
QNH
hPa
Press
MSL
hPa
Rain
since
9 am
mm
Dir
 
Spd
km/h
Gust
km/h
Spd
kts
Gust
kts
30/11:54pm 7.2 6.3 6.1 93 0.5 CALM 0 0 0 0 1022.4 1022.4 1.0
30/11:53pm 7.3 6.4 6.2 93 0.5 CALM 0 0 0 0 1022.5 1022.5 1.0
30/11:30pm 7.1 5.4 6.0 93 0.5 WNW 4 6 2 3 1022.5 1022.5 1.0
30/11:00pm 6.9 4.6 5.5 91 0.6 NNE 7 9 4 5 1022.7 1022.7 1.0
30/10:52pm 7.3 5.5 5.6 89 0.8 SSE 4 9 2 5 1022.6 1022.6 1.0
30/10:30pm 9.2 7.4 7.8 91 0.7 SW 7 9 4 5 1022.5 1022.5 1.0
30/10:28pm 9.2 7.4 7.8 91 0.7 SW 7 9 4 5 1022.5 1022.5 1.0
30/10:00pm 10.2 8.6 8.8 91 0.7 SSW 7 9 4 5 1022.6 1022.6 1.0
30/09:30pm 10.7 9.2 9.3 91 0.7 SW 7 9 4 5 1022.3 1022.3 1.0
30/09:00pm 11.2 9.8 9.6 90 0.8 SSW 7 9 4 5 1021.8 1021.8 1.0
30/08:30pm 11.3 9.2 9.7 90 0.8 SSW 11 13 6 7 1021.5 1021.5 1.0
30/08:00pm 11.4 9.0 10.1 92 0.7 SSW 13 15 7 8 1021.2 1021.2 1.0
30/07:30pm 11.3 8.1 10.0 92 0.7 SSW 17 20 9 11 1020.9 1020.9 1.0
30/07:15pm 11.5 7.4 10.2 92 0.7 SSW 22 28 12 15 1020.6 1020.6 1.0
30/07:00pm 11.7 7.3 10.3 91 0.7 SSW 24 37 13 20 1020.5 1020.5 0.8
30/06:58pm 11.7 7.3 10.3 91 0.7 SW 24 37 13 20 1020.4 1020.4 0.8
30/06:52pm 11.9 8.5 10.5 91 0.7 W 19 37 10 20 1020.3 1020.3 0.0
30/06:30pm 10.9 8.3 9.2 89 0.8 WNW 13 17 7 9 1019.8 1019.8 0.0
30/06:00pm 11.6 8.3 9.5 87 1.1 WNW 17 20 9 11 1019.5 1019.5 0.0
30/05:30pm 11.9 8.7 9.8 87 1.1 WNW 17 20 9 11 1019.3 1019.3 0.0
30/05:00pm 12.7 9.2 10.1 84 1.3 WNW 19 24 10 13 1019.0 1019.0 0.0
30/04:30pm 12.9 10.3 10.6 86 1.2 WNW 15 20 8 11 1018.7 1018.7 0.0
30/04:15pm 12.5 9.5 10.7 89 0.9 NW 17 22 9 12 1018.6 1018.6 0.0
30/04:00pm 12.2 8.2 10.4 89 0.9 WNW 22 28 12 15 1018.5 1018.5 0.0
30/03:46pm 12.4 7.5 10.0 85 1.2 NW 26 35 14 19 1018.7 1018.7 0.0
30/03:30pm 12.9 7.6 8.6 75 2.1 WNW 26 33 14 18 1018.7 1018.7 0.0
30/03:00pm 13.1 6.2 8.8 75 2.2 W 35 48 19 26 1018.9 1018.9 0.0
30/02:30pm 15.1 7.9 4.8 50 4.8 WNW 32 41 17 22 1018.5 1018.5 0.0
30/02:00pm 15.1 7.5 3.9 47 5.1 NW 33 44 18 24 1018.3 1018.3 0.0
30/01:30pm 14.9 7.2 2.4 43 5.5 NW 32 46 17 25 1018.4 1018.4 0.0
30/01:00pm 14.8 7.1 2.4 43 5.5 NW 32 41 17 22 1018.5 1018.5 0.0
30/12:30pm 16.0 6.2 2.1 39 6.2 NW 43 56 23 30 1018.5 1018.5 0.0
30/12:15pm 15.8 7.8 1.5 38 6.3 NW 33 52 18 28 1018.6 1018.6 0.0
30/12:00pm 15.2 7.1 3.4 45 5.4 NW 35 46 19 25 1018.9 1018.9 0.0
30/11:37am 14.8 6.2 2.4 43 5.5 NW 37 56 20 30 1018.9 1018.9 0.0
30/11:30am 14.9 5.1 2.1 42 5.6 NW 43 57 23 31 1019.0 1019.0 0.0
30/11:01am 15.1 6.1 2.6 43 5.6 NNW 39 57 21 31 1019.0 1019.0 0.0
30/11:00am 15.4 6.0 2.2 41 5.9 NNW 41 57 22 31 1019.0 1019.0 0.0
30/10:42am 14.4 6.0 1.7 42 5.5 NNW 35 57 19 31 1019.6 1019.6 0.0
30/10:30am 13.9 5.6 1.9 44 5.2 NNW 35 48 19 26 1019.6 1019.6 0.0
30/10:05am 13.2 5.5 2.1 47 4.8 NNW 32 50 17 27 1019.0 1019.0 0.0
30/10:00am 13.1 5.2 2.1 47 4.8 NNW 33 46 18 25 1019.2 1019.2 0.0
30/09:42am 12.5 4.1 1.8 48 4.6 NNW 35 54 19 29 1019.5 1019.5 0.0
30/09:30am 12.4 3.3 1.7 48 4.6 NNW 39 52 21 28 1019.3 1019.3 0.0
30/09:00am 11.6 3.6 1.8 51 4.2 NNW 33 44 18 24 1019.3 1019.3 0.2
30/08:30am 11.2 3.3 1.2 50 4.2 NNW 32 43 17 23 1019.7 1019.7 0.2
30/08:19am 11.1 3.6 1.4 51 4.1 N 30 48 16 26 1019.7 1019.7 0.2
30/08:00am 10.8 4.5 1.6 53 3.9 N 24 41 13 22 1019.6 1019.6 0.2
30/07:30am 10.3 4.4 1.7 55 3.6 N 22 30 12 16 1019.6 1019.6 0.2
30/07:00am 9.4 3.5 2.0 60 3.1 N 22 26 12 14 1019.7 1019.7 0.2
30/06:30am 9.0 3.6 2.3 63 2.8 NNE 20 28 11 15 1019.5 1019.5 0.2
30/06:00am 9.1 2.3 2.9 65 2.6 NNE 28 33 15 18 1019.5 1019.5 0.2
30/05:30am 8.8 3.5 3.0 67 2.5 NNE 20 28 11 15 1020.5 1020.5 0.2
30/05:00am 10.1 5.1 1.5 55 3.6 NNE 17 22 9 12 1021.2 1021.2 0.0
30/04:30am 10.3 4.4 1.4 54 3.7 NNE 22 30 12 16 1021.1 1021.1 0.0
30/04:00am 10.7 5.1 1.0 51 4.0 NNE 20 28 11 15 1021.3 1021.3 0.0
30/03:30am 10.6 5.0 1.4 53 3.8 NNE 20 26 11 14 1021.6 1021.6 0.0
30/03:00am 10.5 5.5 1.6 54 3.7 NNE 17 22 9 12 1022.1 1022.1 0.0
30/02:30am 10.2 6.0 1.8 56 3.5 NNE 13 17 7 9 1022.7 1022.7 0.0
30/02:00am 10.6 5.7 2.2 56 3.6 NNE 17 24 9 13 1023.0 1023.0 0.0
30/01:30am 10.4 6.3 2.3 57 3.4 NE 13 17 7 9 1023.3 1023.3 0.0
30/01:00am 10.3 5.9 2.7 59 3.3 NE 15 17 8 9 1023.3 1023.3 0.0
30/12:30am 10.2 6.2 3.0 61 3.1 NE 13 20 7 11 1023.5 1023.5 0.0
30/12:00am 9.8 5.2 3.5 65 2.7 NE 17 20 9 11 1023.7 1023.7 0.0
 
Date/Time
CST
Tmp

°C
App
Tmp
°C
Dew
Point
°C
Rel
Hum
%
Delta-T

°C
Wind Press
QNH
hPa
Press
MSL
hPa
Rain
since
9 am
mm
Dir
 
Spd
km/h
Gust
km/h
Spd
kts
Gust
kts
29/11:30pm 9.6 5.4 3.8 67 2.5 NE 15 17 8 9 1024.2 1024.2 0.0
29/11:00pm 9.9 5.3 3.9 66 2.6 NE 17 22 9 12 1024.3 1024.3 0.0
29/10:30pm 9.7 4.6 3.9 67 2.5 NE 20 28 11 15 1024.5 1024.5 0.0
29/10:00pm 9.3 4.4 4.3 71 2.2 NE 19 24 10 13 1024.8 1024.8 0.0
29/09:30pm 8.3 4.2 4.5 77 1.7 NE 15 19 8 10 1025.1 1025.1 0.0
29/09:00pm 7.7 3.6 4.1 78 1.5 NE 15 19 8 10 1025.5 1025.5 0.0
29/08:30pm 8.2 4.1 4.2 76 1.7 NE 15 20 8 11 1025.5 1025.5 0.0
29/08:00pm 8.6 4.1 4.4 75 1.8 NE 17 20 9 11 1025.5 1025.5 0.0
29/07:30pm 9.3 5.3 4.7 73 2.0 NE 15 19 8 10 1025.6 1025.6 0.0
29/07:00pm 9.4 5.0 5.0 74 2.0 NE 17 22 9 12 1025.6 1025.6 0.0
29/06:30pm 8.5 4.7 3.8 72 2.0 ENE 13 15 7 8 1025.7 1025.7 0.0
29/06:00pm 9.6 5.2 4.8 72 2.1 NE 17 19 9 10 1025.5 1025.5 0.0
29/05:30pm 10.0 5.9 4.6 69 2.4 NE 15 19 8 10 1025.4 1025.4 0.0
29/05:00pm 11.3 6.5 4.5 63 3.1 NNE 19 22 10 12 1025.7 1025.7 0.0
29/04:30pm 12.4 8.0 4.6 59 3.5 NNE 17 22 9 12 1025.8 1025.8 0.0
29/04:00pm 12.8 7.5 4.8 58 3.7 N 22 30 12 16 1026.1 1026.1 0.0
29/03:30pm 13.9 8.0 3.7 50 4.6 N 24 33 13 18 1026.5 1026.5 0.0
29/03:00pm 12.9 8.1 4.6 57 3.8 N 19 28 10 15 1026.6 1026.6 0.0
29/02:30pm 12.7 7.5 3.6 54 4.0 N 20 28 11 15 1027.1 1027.1 0.0
29/02:00pm 12.4 7.5 4.1 57 3.7 N 19 24 10 13 1027.4 1027.4 0.0
29/01:30pm 11.8 7.4 4.8 62 3.2 N 17 22 9 12 1028.1 1028.1 0.0
29/01:00pm 11.7 7.5 5.6 66 2.8 N 17 22 9 12 1028.6 1028.6 0.0

Latest Capital City Observations: Canberra | Sydney | Melbourne | Brisbane | Adelaide | Perth | Hobart | Darwin

Other Formats:

Comma delimited format used in spreadsheet applications
http://www.bom.gov.au/fwo/IDS60901/IDS60901.95676.axf

JavaScript Object Notation format (JSON) in row-major order
http://www.bom.gov.au/fwo/IDS60901/IDS60901.95676.json